Whale Point, California Weather observations

Data are for observation ending at time listed.
 Day   Time    Ave.   Ave.  Ave.  Vector   Max.   Stn.    Total    Solar   Ave.  
  of    of     Air    Rel.  Wind   Wind    Wind   Baro.  Precip.   Rad.    Soil  
Year   Day     Temp.  Hum.  Speed  Dir.    Gust   Pres.                    Temp. 
2017   (PST)    F      %     mph   deg.    mph     mb.     in.     W/m2     F   
------------------------------------------------------------------------------
 200   11:40   60.0    74    4.1   208      7.7   995.3    0.00    1045    73.0
 200   11:50   60.5    73    5.3   214      8.7   995.3    0.00    1049    73.1
 200   12:00   59.4    76    5.6   211      9.2   995.3    0.00    1051    73.2
 200   12:10   58.9    77    5.1   218      8.2   995.3    0.00    1052    73.3
 200   12:20   59.3    76    5.2   218      9.3   995.3    0.00    1052    73.4
 200   12:30   59.8    74    5.6   222      9.6   995.3    0.00    1049    73.6
 200   12:40   60.4    73    5.6   221      8.8   994.9    0.00    1045    73.7
 200   12:50   61.1    72    5.2   203      9.5   994.9    0.00    1039    73.8
 200   13:00   60.5    73    5.5   197     11.2   994.9    0.00    1033    74.0
 200   13:10   61.3    70    5.3   208     10.7   994.6    0.00    1024    74.1
 200   13:20   61.1    71    5.1   209      9.3   994.6    0.00    1013    74.3
 200   13:30   61.6    69    5.4   214     10.0   994.6    0.00    1001    74.4
 200   13:40   62.5    68    5.6   195     10.6   994.6    0.00     989    74.6
 200   13:50   62.3    68    6.5   197     11.6   994.6    0.00     973    74.8
 200   14:00   62.7    67    5.1   192     11.2   994.6    0.00     954    75.0
 200   14:10   62.6    67    5.9   200     12.1   994.6    0.00     935    75.2
 200   14:20   62.7    67    5.1   211     10.7   994.6    0.00     915    75.4
 200   14:30   62.8    68    5.3   207     11.2   994.6    0.00     894    75.6
 200   14:40   62.8    67    5.6   206     13.1   994.2    0.00     872    75.8
 200   14:50   62.7    68    6.0   212     10.2   994.2    0.00     848    76.0
 200   15:00   63.6    66    4.9   207     10.0   994.2    0.00     823    76.2
 200   15:10   64.0    65    4.7   202      9.6   994.2    0.00     797    76.5
 200   15:20   63.5    66    5.0   210      8.3   994.2    0.00     769    76.7
 200   15:30   62.5    68    5.5   207      9.7   993.9    0.00     740    76.9
 200   15:40   61.9    70    5.2   212      9.3   993.9    0.00     710    77.1
 200   15:50   63.1    67    4.4   214      8.6   993.9    0.00     679    77.3
 200   16:00   62.9    67    4.6   226      8.3   993.9    0.00     647    77.5
 200   16:10   63.2    67    4.0   223      8.0   993.6    0.00     615    77.6
 200   16:20   63.3    67    4.4   228      8.5   993.6    0.00     581    77.8
 200   16:30   62.8    68    4.5   213      8.0   993.2    0.00     524    78.0
 200   16:40   62.2    69    4.4   220      7.5   993.2    0.00     230    78.2
 200   16:50   62.6    68    3.8   220      6.9   993.2    0.00      71    78.4
 200   17:00   62.6    68    3.6   221      7.2   992.9    0.00      55    78.5
 200   17:10   62.4    68    4.0   232      7.7   992.9    0.00      86    78.7
 200   17:20   62.3    69    3.2   220      8.1   992.9    0.00     354    78.9
 200   17:30   62.2    69    3.4   224      6.9   992.9    0.00     339    79.0
 200   17:40   61.5    70    3.9   232      7.7   992.9    0.00     303    79.2
 200   17:50   61.2    71    3.6   219      8.3   992.9    0.00     267    79.3
 200   18:00   61.8    70    2.6   208      6.9   992.9    0.00     232    79.4
 200   18:10   61.4    70    3.1   219      8.7   992.9    0.00     199    79.6
 200   18:20   60.6    72    3.9   196      9.2   992.9    0.00     166    79.7
 200   18:30   60.7    72    1.7   247      4.7   992.9    0.00     134    79.8
 200   18:40   60.2    73    2.1   219      5.3   992.9    0.00      79    79.9
 200   18:50   60.2    72    2.7   199      6.0   992.9    0.00      82    80.0
 200   19:00   59.6    74    2.2   193      6.0   992.9    0.00      57    80.1
 200   19:10   58.4    76    3.5   171      8.2   993.2    0.00      17    80.1
 200   19:20   57.1    79    2.0   166      7.4   993.2    0.00       7    80.2
 200   19:30   56.6    81    1.0   160      4.7   993.2    0.00       3    80.3
 200   19:40   56.1    82    1.4   184      5.1   993.2    0.00       1    80.3
 200   19:50   55.7    83    1.2   145      4.5   993.6    0.00       0    80.3
 200   20:00   55.3    84    0.8   171      2.6   993.6    0.00       0    80.3
 200   20:10   54.9    85    1.1   153      3.4   993.6    0.00       0    80.2
 200   20:20   54.7    86    0.0    24      1.1   993.6    0.00       0    80.2
 200   20:30   54.5    86    0.3   189      1.7   993.9    0.00       0    80.2
 200   20:40   54.4    86    1.1   161      3.9   993.9    0.00       0    80.1
 200   20:50   53.9    86    0.2   144      2.6   993.9    0.00       0    80.1
 200   21:00   53.9    88    0.1   140      1.5   993.9    0.00       0    80.0
 200   21:10   53.7    88    1.6   166      5.1   994.2    0.00       0    79.9
 200   21:20   53.7    89    0.5   143      4.1   994.2    0.00       0    79.8
 200   21:30   53.7    89    0.3   151      1.8   994.2    0.00       0    79.7
 200   21:40   53.5    89    0.2   187      1.6   994.6    0.00       0    79.6
 200   21:50   53.3    89    0.1   106      1.2   994.6    0.00       0    79.5
 200   22:00   53.1    90    0.4   165      2.3   994.6    0.00       0    79.4
 200   22:10   53.1    90    0.5    37      1.4   994.6    0.00       0    79.3
 200   22:20   53.0    90    0.9    64      2.9   994.6    0.00       0    79.2
 200   22:30   54.2    90    2.8    49      6.0   994.2    0.00       0    79.0
 200   22:40   56.5    83    0.7   344      3.8   994.6    0.00       0    78.9
 200   22:50   57.0    80    1.7     8      3.2   994.6    0.00       0    78.8
 200   23:00   56.4    81    2.6     1      4.2   994.6    0.00       0    78.6
 200   23:10   57.0    80    2.9   339      5.7   994.6    0.00       0    78.5
 200   23:20   56.4    81    2.5   209      4.4   994.9    0.00       0    78.4
 200   23:30   55.3    84    2.0   237      5.8   994.9    0.00       0    78.2
 200   23:40   55.3    83    1.1   134      2.3   994.9    0.00       0    78.1
 200   23:50   55.1    83    0.7   156      2.7   994.9    0.00       0    78.0
 201    0:00   53.7    85    2.7   162      4.4   994.9    0.00       0    77.8
 201    0:10   53.2    88    1.1   142      3.1   994.9    0.00       0    77.7
 201    0:20   53.3    90    1.2    21      2.5   994.9    0.00       0    77.6
 201    0:30   54.3    89    0.4    59      1.8   994.9    0.00       0    77.4
 201    0:40   55.1    85    1.2    47      2.7   994.9    0.00       0    77.3
 201    0:50   55.6    82    0.1   107      0.8   994.9    0.00       0    77.2
 201    1:00   55.4    82    0.2   318      1.3   994.9    0.00       0    77.0
 201    1:10   55.1    83    0.4   105      1.6   994.9    0.00       0    76.9
 201    1:20   54.9    84    0.7   120      1.7   994.9    0.00       0    76.8
 201    1:30   54.6    85    0.8    41      3.2   994.9    0.00       0    76.6
 201    1:40   54.4    84    2.0   132      3.9   994.9    0.00       0    76.5
 201    1:50   53.4    85    1.5   162      3.1   994.9    0.00       0    76.4
 201    2:00   53.1    87    0.8    47      3.0   994.9    0.00       0    76.2
 201    2:10   53.8    87    1.8    52      2.9   994.9    0.00       0    76.1
 201    2:20   54.6    85    0.8    58      3.0   994.9    0.00       0    76.0
 201    2:30   55.1    82    0.5   139      2.3   994.6    0.00       0    75.8
 201    2:40   54.0    83    1.6   153      2.5   994.9    0.00       0    75.7
 201    2:50   53.0    86    0.8   134      2.6   994.9    0.00       0    75.6
 201    3:00   53.1    87    0.6   162      1.6   994.9    0.00       0    75.5
 201    3:10   53.3    88    0.5    49      2.3   994.9    0.00       0    75.3
 201    3:20   53.2    86    0.2   154      2.0   994.9    0.00       0    75.2
 201    3:30   53.5    86    0.4   103      1.3   994.9    0.00       0    75.1
 201    3:40   53.6    86    0.5   151      2.3   994.9    0.00       0    75.0
 201    3:50   53.1    87    1.7   133      2.8   994.9    0.00       0    74.9
 201    4:00   53.0    88    0.8   127      1.8   994.9    0.00       0    74.8
 201    4:10   53.1    88    0.6   130      3.1   994.9    0.00       0    74.6
 201    4:20   53.4    88    0.5   138      1.8   994.9    0.00       0    74.5
 201    4:30   52.8    88    1.9   138      3.6   995.3    0.00       0    74.4
 201    4:40   52.8    89    1.4   129      3.1   995.3    0.00       0    74.3
 201    4:50   52.6    89    0.6    50      3.1   995.3    0.00       0    74.2
 201    5:00   52.1    88    0.6   136      2.6   994.9    0.00       2    74.0
 201    5:10   52.2    89    1.2    29      2.9   995.3    0.00       4    73.9
 201    5:20   52.9    88    1.5    98      5.4   995.3    0.00       7    73.8
 201    5:30   53.8    85    0.4    90      2.3   995.3    0.00       9    73.7
 201    5:40   53.9    83    0.9    43      2.2   995.3    0.00      11    73.6
 201    5:50   53.8    84    2.6    17      4.2   995.6    0.00      13    73.5
 201    6:00   53.9    84    0.8    83      2.6   995.6    0.00      15    73.4
 201    6:10   54.1    84    0.1   319      1.0   995.6    0.00      18    73.3
 201    6:20   53.8    83    0.0   210      0.7   995.6    0.00      19    73.2
 201    6:30   54.0    84    0.6    75      1.8   995.6    0.00      21    73.1
 201    6:40   54.1    84    0.2   106      1.5   995.6    0.00      22    73.0
 201    6:50   54.2    83    1.7   170      3.5   995.6    0.00      23    72.9
 201    7:00   53.6    84    1.6   176      3.7   995.6    0.00      47    72.8
 201    7:10   54.5    85    2.3   178      5.3   995.9    0.00     351    72.7
 201    7:20   55.3    85    3.0   176      5.0   995.9    0.00     432    72.6
 201    7:30   55.6    84    1.8   195      2.9   995.9    0.00     488    72.4
 201    7:40   56.9    83    1.2   190      2.3   995.9    0.00     520    72.3
 201    7:50   58.4    79    1.0   185      3.1   995.9    0.00     550    72.2
 201    8:00   57.6    79    3.4   188      6.8   995.9    0.00     574    72.2
 201    8:10   56.2    82    3.3   195      5.0   996.3    0.00     604    72.1
 201    8:20   55.5    85    1.9   217      3.5   995.9    0.00     637    72.1
 201    8:30   55.7    86    2.2   198      4.6   996.3    0.00     667    72.0
 201    8:40   56.0    86    2.4   205      4.7   996.3    0.00     697    71.9
 201    8:50   56.3    85    3.9   187      6.6   996.3    0.00     727    71.9
 201    9:00   55.8    85    4.0   198      7.7   996.3    0.00     744    71.9
 201    9:10   55.7    86    4.0   202      7.6   996.3    0.00     783    71.9
 201    9:20   55.5    87    4.2   200      7.5   996.3    0.00     810    71.9
 201    9:30   55.9    86    3.4   200      6.6   996.3    0.00     834    71.9
 201    9:40   56.0    86    3.4   204      6.8   996.3    0.00     857    71.9
 201    9:50   56.2    85    4.3   204      7.2   996.3    0.00     880    71.9
 201   10:00   56.8    83    4.0   209      7.2   996.3    0.00     902    71.9
 201   10:10   57.4    82    3.8   206      6.2   996.3    0.00     922    71.9
 201   10:20   58.2    80    3.8   210      5.8   996.6    0.00     940    72.0
 201   10:30   58.3    80    4.3   211      7.0   996.6    0.00     957    72.1
 201   10:40   58.9    79    4.2   204      6.8   996.6    0.00     974    72.1
 201   10:50   59.2    78    4.6   201      7.3   996.6    0.00     988    72.2
 201   11:00   58.7    79    5.3   207      8.7   996.6    0.00    1000    72.3
 201   11:10   58.6    78    4.9   217      9.0   996.6    0.00    1011    72.4
 201   11:20   59.3    77    4.5   202      8.8   996.6    0.00    1020    72.5
 201   11:30   59.9    76    4.5   207      9.1   996.6    0.00    1028    72.5

Return to Whale Point graphs page.


Western Regional Climate Center,wrcc@dri.edu